Etihad Airways Virtual Airport Information Service

Brisbane Airport

ICAO: YBBN Country: Australia
Latitude: -27.3841 Longitude: 153.117
Latest Arrival : ETD484 (OMAA-YBBN) Latest Departure : UAE433 (A) (YBBN-WSSS)


WX CaptureLIVE
Data provided by noaa.gov | Recorded at 23:02:14

METAR : YBBN 192230Z 21003KT 9999 -SHRA BKN016 21/18 Q1020

TAF : YBBN 192005Z 1920/2100 08006KT 9999 -SHRA SCT020 BKN045 FM200000 02014KT 9999 NSW SCT030 FM200900 01010KT 9999 SCT018 FM201800 32005KT 9999 FEW005 SCT016


Runway Data for YBBN
Data provided by openaviationdata.com

Runway ID Mag Var Hdg Length Elevation Surface ILS Freq ILS Id ILS Slope

Brisbane Airport, Australia
Use only for reference purposes